sensor_id;sensor_type;location;lat;lon;timestamp;pressure;altitude;pressure_sealevel;temperature;humidity
25510;BME280;13413;52.336;21.200;2023-08-31T00:00:35;99505.77;;;18.81;87.56
25510;BME280;13413;52.336;21.200;2023-08-31T00:03:29;99512.23;;;18.80;87.69
25510;BME280;13413;52.336;21.200;2023-08-31T00:09:18;99511.46;;;18.75;87.59
25510;BME280;13413;52.336;21.200;2023-08-31T00:12:12;99516.08;;;18.73;87.46
25510;BME280;13413;52.336;21.200;2023-08-31T00:15:07;99514.95;;;18.73;87.55
25510;BME280;13413;52.336;21.200;2023-08-31T00:18:01;99518.59;;;18.76;87.42
25510;BME280;13413;52.336;21.200;2023-08-31T00:20:55;99517.12;;;18.75;87.31
25510;BME280;13413;52.336;21.200;2023-08-31T00:23:49;99515.31;;;18.76;87.33
25510;BME280;13413;52.336;21.200;2023-08-31T00:26:43;99515.18;;;18.78;87.17
25510;BME280;13413;52.336;21.200;2023-08-31T00:29:37;99514.60;;;18.79;87.17
25510;BME280;13413;52.336;21.200;2023-08-31T00:32:33;99516.80;;;18.79;87.12
25510;BME280;13413;52.336;21.200;2023-08-31T00:35:28;99511.59;;;18.79;87.11
25510;BME280;13413;52.336;21.200;2023-08-31T00:38:22;99508.64;;;18.80;87.23
25510;BME280;13413;52.336;21.200;2023-08-31T00:41:16;99511.63;;;18.77;87.08
25510;BME280;13413;52.336;21.200;2023-08-31T00:44:10;99510.14;;;18.75;87.10
25510;BME280;13413;52.336;21.200;2023-08-31T00:47:04;99510.11;;;18.73;87.12
25510;BME280;13413;52.336;21.200;2023-08-31T00:49:58;99511.19;;;18.73;87.21
25510;BME280;13413;52.336;21.200;2023-08-31T00:52:52;99510.13;;;18.71;87.17
25510;BME280;13413;52.336;21.200;2023-08-31T00:55:46;99509.58;;;18.70;87.28
25510;BME280;13413;52.336;21.200;2023-08-31T00:58:39;99509.09;;;18.73;87.31
25510;BME280;13413;52.336;21.200;2023-08-31T01:01:39;99507.06;;;18.74;87.27
25510;BME280;13413;52.336;21.200;2023-08-31T01:04:43;99507.08;;;18.75;87.36
25510;BME280;13413;52.336;21.200;2023-08-31T01:07:47;99508.45;;;18.78;87.22
25510;BME280;13413;52.336;21.200;2023-08-31T01:10:51;99508.04;;;18.79;87.19
25510;BME280;13413;52.336;21.200;2023-08-31T01:13:53;99512.08;;;18.72;86.68
25510;BME280;13413;52.336;21.200;2023-08-31T01:16:53;99519.84;;;18.70;86.75
25510;BME280;13413;52.336;21.200;2023-08-31T01:19:50;99520.46;;;18.67;86.73
25510;BME280;13413;52.336;21.200;2023-08-31T01:23:00;99526.44;;;18.60;86.53
25510;BME280;13413;52.336;21.200;2023-08-31T01:25:53;99524.65;;;18.53;86.80
25510;BME280;13413;52.336;21.200;2023-08-31T01:34:20;99527.56;;;18.47;86.72
25510;BME280;13413;52.336;21.200;2023-08-31T01:37:24;99527.42;;;18.41;86.69
25510;BME280;13413;52.336;21.200;2023-08-31T01:40:23;99527.29;;;18.39;86.82
25510;BME280;13413;52.336;21.200;2023-08-31T01:43:19;99525.40;;;18.38;86.93
25510;BME280;13413;52.336;21.200;2023-08-31T01:46:16;99526.73;;;18.38;86.89
25510;BME280;13413;52.336;21.200;2023-08-31T01:49:11;99522.56;;;18.36;86.87
25510;BME280;13413;52.336;21.200;2023-08-31T01:52:05;99522.45;;;18.36;86.85
25510;BME280;13413;52.336;21.200;2023-08-31T01:54:59;99521.27;;;18.33;86.75
25510;BME280;13413;52.336;21.200;2023-08-31T01:57:53;99524.80;;;18.31;86.79
25510;BME280;13413;52.336;21.200;2023-08-31T02:00:48;99527.23;;;18.29;86.81
25510;BME280;13413;52.336;21.200;2023-08-31T02:03:41;99527.44;;;18.25;86.72
25510;BME280;13413;52.336;21.200;2023-08-31T02:06:35;99525.02;;;18.21;86.74
25510;BME280;13413;52.336;21.200;2023-08-31T02:09:29;99528.39;;;18.20;86.77
25510;BME280;13413;52.336;21.200;2023-08-31T02:12:23;99528.73;;;18.18;86.80
25510;BME280;13413;52.336;21.200;2023-08-31T02:15:18;99528.52;;;18.15;86.70
25510;BME280;13413;52.336;21.200;2023-08-31T02:18:11;99529.27;;;18.15;86.62
25510;BME280;13413;52.336;21.200;2023-08-31T02:21:05;99532.30;;;18.12;86.54
25510;BME280;13413;52.336;21.200;2023-08-31T02:23:59;99534.86;;;18.12;86.57
25510;BME280;13413;52.336;21.200;2023-08-31T02:26:53;99534.41;;;18.14;86.66
25510;BME280;13413;52.336;21.200;2023-08-31T02:29:48;99532.61;;;18.15;86.66
25510;BME280;13413;52.336;21.200;2023-08-31T02:32:43;99535.72;;;18.15;86.66
25510;BME280;13413;52.336;21.200;2023-08-31T02:35:37;99541.60;;;18.17;86.55
25510;BME280;13413;52.336;21.200;2023-08-31T02:38:31;99538.64;;;18.13;86.49
25510;BME280;13413;52.336;21.200;2023-08-31T02:41:25;99538.58;;;18.09;86.55
25510;BME280;13413;52.336;21.200;2023-08-31T02:44:19;99539.21;;;18.09;86.54
25510;BME280;13413;52.336;21.200;2023-08-31T02:47:13;99536.23;;;18.06;86.60
25510;BME280;13413;52.336;21.200;2023-08-31T02:50:09;99540.36;;;18.03;86.53
25510;BME280;13413;52.336;21.200;2023-08-31T02:53:01;99539.36;;;18.04;86.67
25510;BME280;13413;52.336;21.200;2023-08-31T02:55:58;99540.21;;;18.04;86.69
25510;BME280;13413;52.336;21.200;2023-08-31T02:58:52;99537.61;;;18.02;86.64
25510;BME280;13413;52.336;21.200;2023-08-31T03:01:46;99544.10;;;17.99;86.65
25510;BME280;13413;52.336;21.200;2023-08-31T03:04:40;99543.89;;;17.99;86.62
25510;BME280;13413;52.336;21.200;2023-08-31T03:07:35;99545.67;;;18.03;86.77
25510;BME280;13413;52.336;21.200;2023-08-31T03:10:28;99549.65;;;18.03;86.61
25510;BME280;13413;52.336;21.200;2023-08-31T03:13:23;99560.23;;;18.00;86.46
25510;BME280;13413;52.336;21.200;2023-08-31T03:16:16;99558.86;;;17.98;86.61
25510;BME280;13413;52.336;21.200;2023-08-31T03:19:10;99564.06;;;18.01;86.51
25510;BME280;13413;52.336;21.200;2023-08-31T03:22:05;99563.04;;;18.01;86.50
25510;BME280;13413;52.336;21.200;2023-08-31T03:28:06;99565.52;;;17.96;86.49
25510;BME280;13413;52.336;21.200;2023-08-31T03:31:01;99565.95;;;17.92;86.49
25510;BME280;13413;52.336;21.200;2023-08-31T03:33:55;99563.48;;;17.90;86.55
25510;BME280;13413;52.336;21.200;2023-08-31T03:36:49;99562.28;;;17.92;86.70
25510;BME280;13413;52.336;21.200;2023-08-31T03:39:43;99560.20;;;17.95;86.63
25510;BME280;13413;52.336;21.200;2023-08-31T03:42:36;99557.63;;;17.93;86.51
25510;BME280;13413;52.336;21.200;2023-08-31T03:45:28;99561.25;;;17.94;86.61
25510;BME280;13413;52.336;21.200;2023-08-31T03:53:55;99568.23;;;17.88;86.52
25510;BME280;13413;52.336;21.200;2023-08-31T03:56:49;99570.84;;;17.84;86.63
25510;BME280;13413;52.336;21.200;2023-08-31T03:59:43;99572.51;;;17.87;86.81
25510;BME280;13413;52.336;21.200;2023-08-31T04:02:37;99579.17;;;17.87;86.65
25510;BME280;13413;52.336;21.200;2023-08-31T04:05:33;99573.46;;;17.87;86.51
25510;BME280;13413;52.336;21.200;2023-08-31T04:08:28;99580.30;;;17.88;86.54
25510;BME280;13413;52.336;21.200;2023-08-31T04:11:22;99583.83;;;17.90;86.57
25510;BME280;13413;52.336;21.200;2023-08-31T04:14:16;99581.85;;;17.93;86.52
25510;BME280;13413;52.336;21.200;2023-08-31T04:17:10;99584.00;;;17.88;86.41
25510;BME280;13413;52.336;21.200;2023-08-31T04:20:05;99578.77;;;17.84;86.40
25510;BME280;13413;52.336;21.200;2023-08-31T04:22:57;99578.51;;;17.86;86.64
25510;BME280;13413;52.336;21.200;2023-08-31T04:25:51;99575.15;;;17.91;86.47
25510;BME280;13413;52.336;21.200;2023-08-31T04:28:45;99574.89;;;17.94;86.41
25510;BME280;13413;52.336;21.200;2023-08-31T04:31:39;99572.30;;;17.94;86.32
25510;BME280;13413;52.336;21.200;2023-08-31T04:34:33;99578.67;;;17.90;86.26
25510;BME280;13413;52.336;21.200;2023-08-31T04:37:27;99586.56;;;17.86;86.27
25510;BME280;13413;52.336;21.200;2023-08-31T04:40:21;99587.25;;;17.86;86.39
25510;BME280;13413;52.336;21.200;2023-08-31T04:43:15;99590.23;;;17.85;86.42
25510;BME280;13413;52.336;21.200;2023-08-31T04:46:09;99593.05;;;17.83;86.56
25510;BME280;13413;52.336;21.200;2023-08-31T04:49:03;99598.45;;;17.86;86.66
25510;BME280;13413;52.336;21.200;2023-08-31T04:51:57;99599.38;;;17.83;86.65
25510;BME280;13413;52.336;21.200;2023-08-31T04:54:51;99603.88;;;17.78;86.68
25510;BME280;13413;52.336;21.200;2023-08-31T04:57:45;99599.77;;;17.76;86.53
25510;BME280;13413;52.336;21.200;2023-08-31T05:00:39;99605.95;;;17.79;86.59
25510;BME280;13413;52.336;21.200;2023-08-31T05:03:33;99610.61;;;17.81;86.44
25510;BME280;13413;52.336;21.200;2023-08-31T05:06:27;99615.75;;;17.81;86.26
25510;BME280;13413;52.336;21.200;2023-08-31T05:09:21;99623.59;;;17.78;86.15
25510;BME280;13413;52.336;21.200;2023-08-31T05:12:15;99623.85;;;17.76;86.11
25510;BME280;13413;52.336;21.200;2023-08-31T05:15:10;99632.38;;;17.75;86.17
25510;BME280;13413;52.336;21.200;2023-08-31T05:18:04;99638.48;;;17.83;86.41
25510;BME280;13413;52.336;21.200;2023-08-31T05:20:58;99638.60;;;17.86;86.03
25510;BME280;13413;52.336;21.200;2023-08-31T05:23:52;99639.61;;;17.89;85.85
25510;BME280;13413;52.336;21.200;2023-08-31T05:26:46;99638.45;;;17.90;85.83
25510;BME280;13413;52.336;21.200;2023-08-31T05:29:40;99639.76;;;17.90;85.76
25510;BME280;13413;52.336;21.200;2023-08-31T05:32:34;99638.77;;;17.95;85.90
25510;BME280;13413;52.336;21.200;2023-08-31T05:35:28;99638.62;;;17.96;85.13
25510;BME280;13413;52.336;21.200;2023-08-31T05:38:24;99642.81;;;17.99;85.21
25510;BME280;13413;52.336;21.200;2023-08-31T05:41:18;99640.81;;;18.05;85.04
25510;BME280;13413;52.336;21.200;2023-08-31T05:44:12;99641.88;;;18.06;84.32
25510;BME280;13413;52.336;21.200;2023-08-31T05:47:06;99642.61;;;18.10;84.27
25510;BME280;13413;52.336;21.200;2023-08-31T05:50:00;99641.89;;;18.14;84.05
25510;BME280;13413;52.336;21.200;2023-08-31T05:52:54;99641.98;;;18.23;84.06
25510;BME280;13413;52.336;21.200;2023-08-31T05:55:48;99647.06;;;18.31;84.00
25510;BME280;13413;52.336;21.200;2023-08-31T05:58:42;99650.55;;;18.40;83.86
25510;BME280;13413;52.336;21.200;2023-08-31T06:01:37;99651.02;;;18.46;83.43
25510;BME280;13413;52.336;21.200;2023-08-31T06:04:29;99657.45;;;18.48;82.80
25510;BME280;13413;52.336;21.200;2023-08-31T06:10:07;99669.03;;;18.49;82.99
25510;BME280;13413;52.336;21.200;2023-08-31T06:13:00;99669.56;;;18.43;82.76
25510;BME280;13413;52.336;21.200;2023-08-31T06:15:54;99668.67;;;18.38;82.58
25510;BME280;13413;52.336;21.200;2023-08-31T06:18:48;99669.17;;;18.34;82.39
25510;BME280;13413;52.336;21.200;2023-08-31T06:21:42;99674.00;;;18.29;82.45
25510;BME280;13413;52.336;21.200;2023-08-31T06:24:36;99681.85;;;18.24;82.19
25510;BME280;13413;52.336;21.200;2023-08-31T06:30:37;99683.05;;;18.25;82.34
25510;BME280;13413;52.336;21.200;2023-08-31T06:33:31;99684.20;;;18.29;82.32
25510;BME280;13413;52.336;21.200;2023-08-31T06:36:24;99684.30;;;18.29;82.16
25510;BME280;13413;52.336;21.200;2023-08-31T06:39:18;99681.63;;;18.26;81.67
25510;BME280;13413;52.336;21.200;2023-08-31T06:42:12;99682.32;;;18.23;81.54
25510;BME280;13413;52.336;21.200;2023-08-31T06:45:08;99688.50;;;18.17;81.38
25510;BME280;13413;52.336;21.200;2023-08-31T06:48:02;99689.83;;;18.11;81.03
25510;BME280;13413;52.336;21.200;2023-08-31T06:50:56;99693.63;;;18.08;81.28
25510;BME280;13413;52.336;21.200;2023-08-31T06:53:50;99690.48;;;18.06;81.14
25510;BME280;13413;52.336;21.200;2023-08-31T06:56:44;99691.23;;;18.03;81.37
25510;BME280;13413;52.336;21.200;2023-08-31T06:59:38;99701.91;;;18.02;81.34
25510;BME280;13413;52.336;21.200;2023-08-31T07:02:32;99702.45;;;18.08;81.35
25510;BME280;13413;52.336;21.200;2023-08-31T07:05:27;99708.58;;;18.12;81.17
25510;BME280;13413;52.336;21.200;2023-08-31T07:08:21;99709.79;;;18.19;81.15
25510;BME280;13413;52.336;21.200;2023-08-31T07:11:15;99708.30;;;18.32;81.07
25510;BME280;13413;52.336;21.200;2023-08-31T07:14:09;99706.09;;;18.49;80.30
25510;BME280;13413;52.336;21.200;2023-08-31T07:17:04;99712.42;;;18.64;80.06
25510;BME280;13413;52.336;21.200;2023-08-31T07:19:57;99715.59;;;18.73;79.12
25510;BME280;13413;52.336;21.200;2023-08-31T07:22:51;99722.35;;;18.79;79.29
25510;BME280;13413;52.336;21.200;2023-08-31T07:25:45;99718.98;;;18.84;78.70
25510;BME280;13413;52.336;21.200;2023-08-31T07:28:39;99722.17;;;18.92;79.27
25510;BME280;13413;52.336;21.200;2023-08-31T07:31:33;99721.18;;;19.01;77.88
25510;BME280;13413;52.336;21.200;2023-08-31T07:34:27;99713.45;;;19.01;77.44
25510;BME280;13413;52.336;21.200;2023-08-31T07:37:21;99721.89;;;19.03;77.31
25510;BME280;13413;52.336;21.200;2023-08-31T07:40:16;99723.38;;;19.04;76.80
25510;BME280;13413;52.336;21.200;2023-08-31T07:43:09;99719.70;;;19.03;76.49
25510;BME280;13413;52.336;21.200;2023-08-31T07:46:03;99726.43;;;19.10;76.12
25510;BME280;13413;52.336;21.200;2023-08-31T07:48:57;99726.62;;;19.16;76.26
25510;BME280;13413;52.336;21.200;2023-08-31T07:51:51;99734.37;;;19.19;75.68
25510;BME280;13413;52.336;21.200;2023-08-31T07:54:48;99735.18;;;19.20;74.97
25510;BME280;13413;52.336;21.200;2023-08-31T07:57:41;99739.95;;;19.26;75.58
25510;BME280;13413;52.336;21.200;2023-08-31T08:00:35;99744.83;;;19.28;74.87
25510;BME280;13413;52.336;21.200;2023-08-31T08:03:29;99749.25;;;19.29;75.18
25510;BME280;13413;52.336;21.200;2023-08-31T08:06:23;99747.38;;;19.34;75.26
25510;BME280;13413;52.336;21.200;2023-08-31T08:09:17;99749.82;;;19.39;74.39
25510;BME280;13413;52.336;21.200;2023-08-31T08:12:11;99749.20;;;19.42;74.21
25510;BME280;13413;52.336;21.200;2023-08-31T08:15:07;99749.29;;;19.45;73.57
25510;BME280;13413;52.336;21.200;2023-08-31T08:18:00;99752.00;;;19.54;73.91
25510;BME280;13413;52.336;21.200;2023-08-31T08:20:53;99746.68;;;19.63;73.60
25510;BME280;13413;52.336;21.200;2023-08-31T08:31:32;99755.34;;;20.15;71.22
25510;BME280;13413;52.336;21.200;2023-08-31T08:34:27;99756.30;;;20.24;70.14
25510;BME280;13413;52.336;21.200;2023-08-31T08:37:21;99760.46;;;20.38;70.74
25510;BME280;13413;52.336;21.200;2023-08-31T08:40:15;99765.33;;;20.55;69.34
25510;BME280;13413;52.336;21.200;2023-08-31T08:43:09;99768.88;;;20.61;68.54
25510;BME280;13413;52.336;21.200;2023-08-31T08:46:06;99768.46;;;20.62;68.37
25510;BME280;13413;52.336;21.200;2023-08-31T08:49:01;99773.73;;;20.56;66.95
25510;BME280;13413;52.336;21.200;2023-08-31T08:51:55;99777.60;;;20.54;67.36
25510;BME280;13413;52.336;21.200;2023-08-31T08:54:50;99779.08;;;20.51;66.78
25510;BME280;13413;52.336;21.200;2023-08-31T08:57:44;99777.48;;;20.52;66.05
25510;BME280;13413;52.336;21.200;2023-08-31T09:00:39;99779.80;;;20.54;66.05
25510;BME280;13413;52.336;21.200;2023-08-31T09:03:34;99780.91;;;20.63;66.20
25510;BME280;13413;52.336;21.200;2023-08-31T09:06:28;99785.24;;;20.75;66.54
25510;BME280;13413;52.336;21.200;2023-08-31T09:09:22;99781.63;;;20.81;66.01
25510;BME280;13413;52.336;21.200;2023-08-31T09:12:16;99779.27;;;20.89;65.92
25510;BME280;13413;52.336;21.200;2023-08-31T09:15:11;99777.09;;;21.07;65.89
25510;BME280;13413;52.336;21.200;2023-08-31T09:18:06;99781.89;;;21.14;63.16
25510;BME280;13413;52.336;21.200;2023-08-31T09:21:02;99781.86;;;21.19;63.37
25510;BME280;13413;52.336;21.200;2023-08-31T09:23:58;99785.06;;;21.39;63.53
25510;BME280;13413;52.336;21.200;2023-08-31T09:26:55;99788.09;;;21.64;62.45
25510;BME280;13413;52.336;21.200;2023-08-31T09:29:49;99788.76;;;21.79;62.64
25510;BME280;13413;52.336;21.200;2023-08-31T09:32:43;99788.71;;;21.99;62.60
25510;BME280;13413;52.336;21.200;2023-08-31T09:35:49;99790.38;;;22.10;62.42
25510;BME280;13413;52.336;21.200;2023-08-31T09:38:44;99790.91;;;22.24;62.10
25510;BME280;13413;52.336;21.200;2023-08-31T09:41:37;99794.64;;;22.39;61.97
25510;BME280;13413;52.336;21.200;2023-08-31T09:44:46;99802.47;;;22.34;60.03
25510;BME280;13413;52.336;21.200;2023-08-31T09:47:43;99810.58;;;22.22;60.58
25510;BME280;13413;52.336;21.200;2023-08-31T09:50:39;99810.70;;;22.21;60.50
25510;BME280;13413;52.336;21.200;2023-08-31T09:53:33;99809.44;;;22.38;59.68
25510;BME280;13413;52.336;21.200;2023-08-31T09:56:32;99808.90;;;22.59;60.24
25510;BME280;13413;52.336;21.200;2023-08-31T09:59:27;99810.49;;;22.84;59.20
25510;BME280;13413;52.336;21.200;2023-08-31T10:02:20;99811.91;;;22.90;59.56
25510;BME280;13413;52.336;21.200;2023-08-31T10:05:15;99819.80;;;23.11;58.28
25510;BME280;13413;52.336;21.200;2023-08-31T10:08:08;99820.55;;;23.36;58.20
25510;BME280;13413;52.336;21.200;2023-08-31T10:11:05;99818.05;;;23.64;58.09
25510;BME280;13413;52.336;21.200;2023-08-31T10:14:00;99822.50;;;24.00;58.26
25510;BME280;13413;52.336;21.200;2023-08-31T10:16:57;99825.06;;;24.18;56.81
25510;BME280;13413;52.336;21.200;2023-08-31T10:19:51;99828.82;;;23.87;55.52
25510;BME280;13413;52.336;21.200;2023-08-31T10:22:45;99833.73;;;23.48;55.85
25510;BME280;13413;52.336;21.200;2023-08-31T10:26:03;99827.21;;;23.54;55.65
25510;BME280;13413;52.336;21.200;2023-08-31T10:28:58;99828.44;;;23.67;54.54
25510;BME280;13413;52.336;21.200;2023-08-31T10:31:52;99828.25;;;23.55;53.96
25510;BME280;13413;52.336;21.200;2023-08-31T10:35:05;99827.39;;;23.51;54.70
25510;BME280;13413;52.336;21.200;2023-08-31T10:38:14;99825.81;;;23.43;54.43
25510;BME280;13413;52.336;21.200;2023-08-31T10:41:22;99828.95;;;23.31;54.57
25510;BME280;13413;52.336;21.200;2023-08-31T10:44:19;99829.55;;;23.24;54.50
25510;BME280;13413;52.336;21.200;2023-08-31T10:52:49;99833.44;;;22.95;54.66
25510;BME280;13413;52.336;21.200;2023-08-31T10:55:53;99839.60;;;22.89;54.40
25510;BME280;13413;52.336;21.200;2023-08-31T10:58:59;99840.02;;;22.84;54.63
25510;BME280;13413;52.336;21.200;2023-08-31T11:01:58;99839.85;;;22.80;54.53
25510;BME280;13413;52.336;21.200;2023-08-31T11:04:55;99841.41;;;22.75;54.55
25510;BME280;13413;52.336;21.200;2023-08-31T11:07:52;99844.28;;;22.75;55.43
25510;BME280;13413;52.336;21.200;2023-08-31T11:10:48;99844.66;;;22.82;55.34
25510;BME280;13413;52.336;21.200;2023-08-31T11:13:42;99847.10;;;22.82;54.22
25510;BME280;13413;52.336;21.200;2023-08-31T11:16:39;99846.17;;;22.76;54.43
25510;BME280;13413;52.336;21.200;2023-08-31T11:19:33;99842.92;;;22.64;54.26
25510;BME280;13413;52.336;21.200;2023-08-31T11:22:27;99842.36;;;22.69;54.71
25510;BME280;13413;52.336;21.200;2023-08-31T11:25:24;99838.38;;;22.72;54.90
25510;BME280;13413;52.336;21.200;2023-08-31T11:28:18;99841.17;;;22.92;55.15
25510;BME280;13413;52.336;21.200;2023-08-31T11:31:12;99847.89;;;23.21;55.40
25510;BME280;13413;52.336;21.200;2023-08-31T11:34:08;99843.79;;;23.30;55.03
25510;BME280;13413;52.336;21.200;2023-08-31T11:37:05;99843.67;;;23.31;54.78
25510;BME280;13413;52.336;21.200;2023-08-31T11:39:59;99841.77;;;23.32;55.03
25510;BME280;13413;52.336;21.200;2023-08-31T11:42:53;99843.72;;;23.38;54.72
25510;BME280;13413;52.336;21.200;2023-08-31T11:45:47;99845.40;;;23.36;54.27
25510;BME280;13413;52.336;21.200;2023-08-31T11:48:41;99846.52;;;23.37;54.30
25510;BME280;13413;52.336;21.200;2023-08-31T11:51:36;99848.54;;;23.27;54.28
25510;BME280;13413;52.336;21.200;2023-08-31T11:54:32;99853.69;;;23.15;53.91
25510;BME280;13413;52.336;21.200;2023-08-31T12:00:35;99847.73;;;23.12;54.83
25510;BME280;13413;52.336;21.200;2023-08-31T12:03:41;99846.81;;;23.31;54.99
25510;BME280;13413;52.336;21.200;2023-08-31T12:06:35;99846.11;;;23.37;53.23
25510;BME280;13413;52.336;21.200;2023-08-31T12:12:40;99840.64;;;23.34;53.85
25510;BME280;13413;52.336;21.200;2023-08-31T12:15:34;99839.45;;;23.25;53.54
25510;BME280;13413;52.336;21.200;2023-08-31T12:18:36;99834.48;;;23.23;53.52
25510;BME280;13413;52.336;21.200;2023-08-31T12:21:30;99834.52;;;23.27;53.73
25510;BME280;13413;52.336;21.200;2023-08-31T12:24:24;99829.38;;;23.38;54.15
25510;BME280;13413;52.336;21.200;2023-08-31T12:27:18;99823.59;;;23.47;53.69
25510;BME280;13413;52.336;21.200;2023-08-31T12:30:13;99822.56;;;23.51;53.61
25510;BME280;13413;52.336;21.200;2023-08-31T12:33:07;99823.48;;;23.55;53.76
25510;BME280;13413;52.336;21.200;2023-08-31T12:36:01;99820.91;;;23.65;53.94
25510;BME280;13413;52.336;21.200;2023-08-31T12:38:54;99818.80;;;23.85;52.98
25510;BME280;13413;52.336;21.200;2023-08-31T12:41:47;99819.13;;;24.04;52.75
25510;BME280;13413;52.336;21.200;2023-08-31T12:44:41;99826.74;;;24.10;51.69
25510;BME280;13413;52.336;21.200;2023-08-31T12:47:36;99819.44;;;24.09;51.76
25510;BME280;13413;52.336;21.200;2023-08-31T12:50:29;99821.83;;;24.08;51.26
25510;BME280;13413;52.336;21.200;2023-08-31T12:53:23;99813.90;;;24.08;51.68
25510;BME280;13413;52.336;21.200;2023-08-31T12:56:17;99809.64;;;24.23;51.79
25510;BME280;13413;52.336;21.200;2023-08-31T12:59:11;99807.46;;;24.36;51.83
25510;BME280;13413;52.336;21.200;2023-08-31T13:02:06;99810.52;;;24.42;51.89
25510;BME280;13413;52.336;21.200;2023-08-31T13:04:59;99807.06;;;24.28;51.21
25510;BME280;13413;52.336;21.200;2023-08-31T13:13:27;99805.07;;;24.26;51.24
25510;BME280;13413;52.336;21.200;2023-08-31T13:16:20;99800.53;;;24.33;50.74
25510;BME280;13413;52.336;21.200;2023-08-31T13:19:15;99801.09;;;24.30;50.04
25510;BME280;13413;52.336;21.200;2023-08-31T13:22:09;99796.13;;;24.25;48.95
25510;BME280;13413;52.336;21.200;2023-08-31T13:25:03;99798.17;;;24.15;48.07
25510;BME280;13413;52.336;21.200;2023-08-31T13:27:56;99808.09;;;24.00;49.14
25510;BME280;13413;52.336;21.200;2023-08-31T13:30:54;99808.54;;;23.95;49.83
25510;BME280;13413;52.336;21.200;2023-08-31T13:33:49;99809.30;;;23.91;50.13
25510;BME280;13413;52.336;21.200;2023-08-31T13:36:42;99806.77;;;23.84;49.99
25510;BME280;13413;52.336;21.200;2023-08-31T13:39:38;99803.56;;;23.91;50.53
25510;BME280;13413;52.336;21.200;2023-08-31T13:42:34;99808.68;;;23.99;49.49
25510;BME280;13413;52.336;21.200;2023-08-31T13:45:29;99806.79;;;24.00;49.80
25510;BME280;13413;52.336;21.200;2023-08-31T13:48:23;99811.86;;;23.91;49.91
25510;BME280;13413;52.336;21.200;2023-08-31T13:51:17;99815.52;;;23.82;50.38
25510;BME280;13413;52.336;21.200;2023-08-31T13:54:11;99813.65;;;23.67;50.24
25510;BME280;13413;52.336;21.200;2023-08-31T13:57:05;99817.95;;;23.57;50.70
25510;BME280;13413;52.336;21.200;2023-08-31T13:59:59;99820.45;;;23.56;51.03
25510;BME280;13413;52.336;21.200;2023-08-31T14:02:53;99821.36;;;23.63;51.17
25510;BME280;13413;52.336;21.200;2023-08-31T14:08:57;99824.42;;;23.71;50.83
25510;BME280;13413;52.336;21.200;2023-08-31T14:14:58;99826.74;;;23.45;50.65
25510;BME280;13413;52.336;21.200;2023-08-31T14:17:55;99837.61;;;23.34;50.94
25510;BME280;13413;52.336;21.200;2023-08-31T14:20:49;99887.20;;;23.27;51.51
25510;BME280;13413;52.336;21.200;2023-08-31T14:23:42;99905.96;;;22.60;53.53
25510;BME280;13413;52.336;21.200;2023-08-31T14:26:37;99903.73;;;21.65;57.05
25510;BME280;13413;52.336;21.200;2023-08-31T14:29:31;99916.89;;;20.72;59.03
25510;BME280;13413;52.336;21.200;2023-08-31T14:32:24;99919.52;;;20.13;59.97
25510;BME280;13413;52.336;21.200;2023-08-31T14:35:19;99926.67;;;19.82;60.54
25510;BME280;13413;52.336;21.200;2023-08-31T14:38:13;99913.62;;;19.70;61.21
25510;BME280;13413;52.336;21.200;2023-08-31T14:41:14;99915.84;;;19.64;61.52
25510;BME280;13413;52.336;21.200;2023-08-31T14:44:08;99903.50;;;19.66;62.36
25510;BME280;13413;52.336;21.200;2023-08-31T14:47:02;99900.03;;;19.72;62.80
25510;BME280;13413;52.336;21.200;2023-08-31T14:49:56;99901.20;;;19.71;62.77
25510;BME280;13413;52.336;21.200;2023-08-31T14:52:50;99903.16;;;19.68;63.39
25510;BME280;13413;52.336;21.200;2023-08-31T14:55:49;99908.65;;;19.62;63.88
25510;BME280;13413;52.336;21.200;2023-08-31T14:58:43;99919.67;;;19.48;64.41
25510;BME280;13413;52.336;21.200;2023-08-31T15:01:37;99932.15;;;19.34;65.21
25510;BME280;13413;52.336;21.200;2023-08-31T15:04:31;99939.42;;;19.13;66.42
25510;BME280;13413;52.336;21.200;2023-08-31T15:07:25;99944.42;;;18.90;67.28
25510;BME280;13413;52.336;21.200;2023-08-31T15:10:19;99952.14;;;18.71;68.20
25510;BME280;13413;52.336;21.200;2023-08-31T15:13:13;99955.43;;;18.58;69.43
25510;BME280;13413;52.336;21.200;2023-08-31T15:16:07;99957.86;;;18.56;69.91
25510;BME280;13413;52.336;21.200;2023-08-31T15:19:01;99961.17;;;18.52;70.16
25510;BME280;13413;52.336;21.200;2023-08-31T15:21:55;99959.05;;;18.55;71.04
25510;BME280;13413;52.336;21.200;2023-08-31T15:24:52;99958.63;;;18.54;71.88
25510;BME280;13413;52.336;21.200;2023-08-31T15:36:40;99945.08;;;18.69;72.88
25510;BME280;13413;52.336;21.200;2023-08-31T15:39:33;99942.77;;;18.69;72.80
25510;BME280;13413;52.336;21.200;2023-08-31T15:42:28;99940.05;;;18.79;73.18
25510;BME280;13413;52.336;21.200;2023-08-31T15:45:22;99937.69;;;18.92;73.36
25510;BME280;13413;52.336;21.200;2023-08-31T15:48:16;99941.01;;;19.03;73.45
25510;BME280;13413;52.336;21.200;2023-08-31T15:51:10;99943.74;;;19.09;73.74
25510;BME280;13413;52.336;21.200;2023-08-31T15:54:04;99950.58;;;19.06;73.84
25510;BME280;13413;52.336;21.200;2023-08-31T15:56:57;99949.02;;;19.03;74.52
25510;BME280;13413;52.336;21.200;2023-08-31T15:59:52;99951.91;;;18.96;74.75
25510;BME280;13413;52.336;21.200;2023-08-31T16:02:45;99950.33;;;18.93;74.85
25510;BME280;13413;52.336;21.200;2023-08-31T16:05:40;99952.70;;;18.92;75.27
25510;BME280;13413;52.336;21.200;2023-08-31T16:08:34;99948.89;;;18.96;75.40
25510;BME280;13413;52.336;21.200;2023-08-31T16:11:27;99947.36;;;18.98;75.48
25510;BME280;13413;52.336;21.200;2023-08-31T16:14:22;99953.76;;;18.98;75.75
25510;BME280;13413;52.336;21.200;2023-08-31T16:17:16;99959.48;;;18.94;76.25